Web Počasí Slunečno.cz™ (Podmínky, ePrivacy) používá cookies a personalizace pro reklamní účely. Pohybem po stránce vyjadřujete souhlas. Odejít

Aktuální počasí v Česku a ve světě - METAR

Seznam meteostanic umístěných nejčasteji na letišti v ČR a ve světě

Vyhledat místa podle abecedy:
A B C D E F G H I J K L M N O P Q R S T U V W X Y Z

Filtrovat:

ID stanice:
a/nebo
Název místa (fulltext):
 
Místo (ID)Naposledy načteno 
Edinburgh (EGPH) 26.10.2021 14:50 UTC Zobrazit METAR
EGPH 261450Z 22017KT 9999 -RA BKN021 15/12 Q1002
Eindhoven (EHEH) 26.10.2021 14:51 UTC Zobrazit METAR
EHEH 261451Z AUTO 22013KT 190V260 9999 SCT024 OVC370 15/10 Q1020 WHT NOSIG
Entebbe (HUEN) 24.10.2021 06:00 UTC Zobrazit METAR
HUEN 240600Z 00000KT CAVOK 24/20 Q1018
Esbjerg (EKEB) 26.10.2021 14:50 UTC Zobrazit METAR
EKEB 261450Z AUTO 22005KT 9999 BKN140/// 12/09 Q1014
Reklama

Reklama


Newslettter

Počasí na Váš email

Každý den Vám pošleme předpověď
Emaily chodí ráno a bez reklamy



Odhlásit newsletter


Další české internetové stránky o počasí najdete v katalogu TOPlist - weby o počasí nebo vyhledejte na internetu, co jste tu na Počasí Slunečno Slunečnu zatím nenašli:
Reklama